Terminal Aerodrome Forecast
Issued by NWS Lake Charles, LA

Home | Current Version | Previous Version | Text Only | Print | Product List | Glossary On
Versions: 1 2 3 4 5 6 7 8 9 10 11 12 13
000
FTUS44 KLCH 162320
TAFLCH
TAF
KLCH 162320Z 1700/1724 09010KT P6SM BKN030
     FM170300 10011G17KT P6SM VCSH BKN030
     FM170600 13014G20KT P6SM -SHRA OVC025
      TEMPO 1709/1713 2SM TSRA BR OVC007CB
     FM171300 03008KT P6SM -SHRA OVC020=

USA.gov is the U.S. government's official web portal to all federal, state and local government web resources and services.